VBD205 SAEZ-SUMU
Flight info
| Callsign | VBD205 |
|---|---|
| Flight time | 0h 38m |
| Altitude | 23000 |
| Route | PTA6A DORVO A305 TOKAM |
| Aircraft | TBM9/L-SDFGRWY/S |
Departure
| Time | 2026-04-24 14:38 |
|---|---|
| Airport | Ezeiza International Airport - Ministro Pistarini (SAEZ) |
Arrival
| Time | 2026-04-24 15:16 |
|---|---|
| Airport | Carrasco General Cesáreo L. Berisso International Airport (SUMU) |
| Time | Latitude | Longitude | Altitude | Speed | Heading |
|---|---|---|---|---|---|
| 2026-04-24 14:24 | -34.81539 | -58.53948 | 67 ft | 0 kts | 320° |
| 2026-04-24 14:35 | -34.81536 | -58.53951 | 67 ft | 4 kts | 328° |
| 2026-04-24 14:35 | -34.81595 | -58.53926 | 61 ft | 28 kts | 172° |
| 2026-04-24 14:36 | -34.81773 | -58.53715 | 68 ft | 37 kts | 150° |
| 2026-04-24 14:36 | -34.81936 | -58.53477 | 68 ft | 44 kts | 111° |
| 2026-04-24 14:36 | -34.81985 | -58.53212 | 64 ft | 32 kts | 107° |
| 2026-04-24 14:36 | -34.82027 | -58.53018 | 65 ft | 0 kts | 109° |
| 2026-04-24 14:37 | -34.82028 | -58.53016 | 63 ft | 2 kts | 108° |
| 2026-04-24 14:37 | -34.82002 | -58.52985 | 66 ft | 11 kts | 348° |
| 2026-04-24 14:38 | -34.81820 | -58.53054 | 67 ft | 57 kts | 342° |
| 2026-04-24 14:38 | -34.81238 | -58.53247 | 130 ft | 110 kts | 348° |
| 2026-04-24 14:38 | -34.80463 | -58.52940 | 395 ft | 135 kts | 51° |
| 2026-04-24 14:38 | -34.80328 | -58.51775 | 740 ft | 155 kts | 111° |
| 2026-04-24 14:39 | -34.81020 | -58.50693 | 1103 ft | 171 kts | 134° |
| 2026-04-24 14:39 | -34.81730 | -58.49453 | 1451 ft | 186 kts | 117° |
| 2026-04-24 14:39 | -34.82140 | -58.47913 | 1788 ft | 197 kts | 99° |
| 2026-04-24 14:39 | -34.82177 | -58.46219 | 2125 ft | 204 kts | 88° |
| 2026-04-24 14:40 | -34.82113 | -58.44481 | 2458 ft | 207 kts | 88° |
| 2026-04-24 14:40 | -34.82073 | -58.42726 | 2794 ft | 209 kts | 90° |
| 2026-04-24 14:40 | -34.82046 | -58.40947 | 3122 ft | 211 kts | 90° |
| 2026-04-24 14:40 | -34.82018 | -58.39151 | 3446 ft | 213 kts | 90° |
| 2026-04-24 14:41 | -34.81989 | -58.37348 | 3771 ft | 214 kts | 90° |
| 2026-04-24 14:41 | -34.81959 | -58.35536 | 4094 ft | 215 kts | 89° |
| 2026-04-24 14:41 | -34.81929 | -58.33719 | 4420 ft | 216 kts | 90° |
| 2026-04-24 14:41 | -34.81900 | -58.31893 | 4744 ft | 216 kts | 89° |
| 2026-04-24 14:42 | -34.81868 | -58.30055 | 4995 ft | 220 kts | 89° |
| 2026-04-24 14:42 | -34.81838 | -58.28142 | 4999 ft | 231 kts | 90° |
| 2026-04-24 14:42 | -34.81809 | -58.26156 | 5003 ft | 237 kts | 90° |
| 2026-04-24 14:42 | -34.81776 | -58.24135 | 5004 ft | 240 kts | 89° |
| 2026-04-24 14:43 | -34.81740 | -58.22099 | 5004 ft | 241 kts | 89° |
| 2026-04-24 14:43 | -34.81701 | -58.20058 | 5005 ft | 242 kts | 89° |
| 2026-04-24 14:43 | -34.81663 | -58.18008 | 5005 ft | 243 kts | 90° |
| 2026-04-24 14:43 | -34.81629 | -58.15956 | 5003 ft | 242 kts | 89° |
| 2026-04-24 14:44 | -34.81590 | -58.13904 | 5000 ft | 243 kts | 89° |
| 2026-04-24 14:44 | -34.81554 | -58.11853 | 4997 ft | 242 kts | 90° |
| 2026-04-24 14:44 | -34.81517 | -58.09802 | 4995 ft | 243 kts | 89° |
| 2026-04-24 14:44 | -34.81476 | -58.07753 | 4996 ft | 243 kts | 89° |
| 2026-04-24 14:45 | -34.81438 | -58.05727 | 4995 ft | 243 kts | 89° |
| 2026-04-24 14:45 | -34.81399 | -58.03675 | 4993 ft | 242 kts | 89° |
| 2026-04-24 14:45 | -34.81360 | -58.01629 | 4992 ft | 242 kts | 89° |
| 2026-04-24 14:45 | -34.81321 | -57.99585 | 4993 ft | 241 kts | 90° |
| 2026-04-24 14:46 | -34.81285 | -57.97539 | 4994 ft | 243 kts | 89° |
| 2026-04-24 14:46 | -34.81240 | -57.95490 | 4992 ft | 242 kts | 89° |
| 2026-04-24 14:46 | -34.81198 | -57.93443 | 4992 ft | 242 kts | 89° |
| 2026-04-24 14:46 | -34.81159 | -57.91400 | 4991 ft | 242 kts | 89° |
| 2026-04-24 14:47 | -34.81131 | -57.90018 | 4992 ft | 241 kts | 89° |
| 2026-04-24 14:47 | -34.81076 | -57.87316 | 4993 ft | 241 kts | 89° |
| 2026-04-24 14:47 | -34.81035 | -57.85275 | 4993 ft | 241 kts | 89° |
| 2026-04-24 14:47 | -34.80992 | -57.83236 | 4993 ft | 241 kts | 89° |
| 2026-04-24 14:48 | -34.80950 | -57.81193 | 4992 ft | 241 kts | 89° |
| 2026-04-24 14:48 | -34.80907 | -57.79155 | 4992 ft | 241 kts | 89° |
| 2026-04-24 14:48 | -34.80865 | -57.77115 | 4992 ft | 241 kts | 89° |
| 2026-04-24 14:48 | -34.80820 | -57.75075 | 4992 ft | 241 kts | 89° |
| 2026-04-24 14:49 | -34.80777 | -57.73034 | 4992 ft | 241 kts | 89° |
| 2026-04-24 14:49 | -34.80732 | -57.70994 | 4992 ft | 241 kts | 89° |
| 2026-04-24 14:49 | -34.80689 | -57.68956 | 4992 ft | 241 kts | 89° |
| 2026-04-24 14:49 | -34.80643 | -57.66913 | 4993 ft | 241 kts | 89° |
| 2026-04-24 14:50 | -34.80598 | -57.64873 | 4993 ft | 241 kts | 89° |
| 2026-04-24 14:50 | -34.80552 | -57.62834 | 4993 ft | 241 kts | 89° |
| 2026-04-24 14:50 | -34.80507 | -57.60794 | 4992 ft | 241 kts | 89° |
| 2026-04-24 14:50 | -34.80460 | -57.58754 | 4992 ft | 241 kts | 89° |
| 2026-04-24 14:51 | -34.80414 | -57.56714 | 4992 ft | 241 kts | 89° |
| 2026-04-24 14:51 | -34.80367 | -57.54674 | 4992 ft | 241 kts | 89° |
| 2026-04-24 14:51 | -34.80320 | -57.52634 | 4992 ft | 241 kts | 89° |
| 2026-04-24 14:51 | -34.80272 | -57.50595 | 4992 ft | 241 kts | 89° |
| 2026-04-24 14:52 | -34.80224 | -57.48555 | 4992 ft | 241 kts | 89° |
| 2026-04-24 14:52 | -34.80176 | -57.46514 | 4993 ft | 241 kts | 89° |
| 2026-04-24 14:52 | -34.80127 | -57.44474 | 4993 ft | 241 kts | 89° |
| 2026-04-24 14:52 | -34.80079 | -57.42434 | 4993 ft | 241 kts | 89° |
| 2026-04-24 14:53 | -34.80029 | -57.40394 | 4993 ft | 241 kts | 89° |
| 2026-04-24 14:53 | -34.79980 | -57.38354 | 4992 ft | 241 kts | 89° |
| 2026-04-24 14:53 | -34.79929 | -57.36314 | 4992 ft | 241 kts | 89° |
| 2026-04-24 14:53 | -34.79880 | -57.34276 | 4992 ft | 241 kts | 89° |
| 2026-04-24 14:54 | -34.79828 | -57.32237 | 4992 ft | 241 kts | 89° |
| 2026-04-24 14:54 | -34.79778 | -57.30197 | 4992 ft | 241 kts | 89° |
| 2026-04-24 14:54 | -34.79726 | -57.28156 | 4992 ft | 241 kts | 89° |
| 2026-04-24 14:54 | -34.79674 | -57.26115 | 4993 ft | 241 kts | 89° |
| 2026-04-24 14:55 | -34.79640 | -57.24766 | 4992 ft | 241 kts | 89° |
| 2026-04-24 14:55 | -34.79570 | -57.22037 | 4993 ft | 241 kts | 89° |
| 2026-04-24 14:55 | -34.79517 | -57.19997 | 4993 ft | 241 kts | 89° |
| 2026-04-24 14:55 | -34.79465 | -57.17960 | 4993 ft | 241 kts | 89° |
| 2026-04-24 14:56 | -34.79411 | -57.15920 | 4993 ft | 241 kts | 89° |
| 2026-04-24 14:56 | -34.79357 | -57.13880 | 4992 ft | 241 kts | 89° |
| 2026-04-24 14:56 | -34.79304 | -57.11841 | 4992 ft | 241 kts | 89° |
| 2026-04-24 14:56 | -34.79249 | -57.09801 | 4992 ft | 241 kts | 89° |
| 2026-04-24 14:57 | -34.79195 | -57.07788 | 4992 ft | 241 kts | 89° |
| 2026-04-24 14:57 | -34.79140 | -57.05751 | 4992 ft | 241 kts | 89° |
| 2026-04-24 14:57 | -34.79085 | -57.03711 | 4992 ft | 241 kts | 89° |
| 2026-04-24 14:57 | -34.79029 | -57.01672 | 4993 ft | 241 kts | 89° |
| 2026-04-24 14:58 | -34.78973 | -56.99632 | 4993 ft | 241 kts | 89° |
| 2026-04-24 14:58 | -34.78916 | -56.97593 | 4993 ft | 241 kts | 89° |
| 2026-04-24 14:58 | -34.78860 | -56.95553 | 4993 ft | 241 kts | 89° |
| 2026-04-24 14:58 | -34.78802 | -56.93516 | 4992 ft | 241 kts | 89° |
| 2026-04-24 14:59 | -34.78745 | -56.91477 | 4992 ft | 241 kts | 89° |
| 2026-04-24 14:59 | -34.78687 | -56.89437 | 4992 ft | 241 kts | 89° |
| 2026-04-24 14:59 | -34.78629 | -56.87398 | 4992 ft | 241 kts | 89° |
| 2026-04-24 14:59 | -34.78570 | -56.85361 | 4992 ft | 241 kts | 89° |
| 2026-04-24 15:00 | -34.78512 | -56.83322 | 4992 ft | 241 kts | 89° |
| 2026-04-24 15:00 | -34.78452 | -56.81280 | 4993 ft | 241 kts | 89° |
| 2026-04-24 15:00 | -34.78393 | -56.79243 | 4993 ft | 241 kts | 89° |
| 2026-04-24 15:00 | -34.78333 | -56.77204 | 4993 ft | 241 kts | 89° |
| 2026-04-24 15:01 | -34.78274 | -56.75165 | 4993 ft | 241 kts | 89° |
| 2026-04-24 15:01 | -34.78220 | -56.73126 | 4995 ft | 241 kts | 91° |
| 2026-04-24 15:01 | -34.78538 | -56.71136 | 5013 ft | 240 kts | 111° |
| 2026-04-24 15:01 | -34.79331 | -56.69351 | 5011 ft | 240 kts | 124° |
| 2026-04-24 15:02 | -34.80245 | -56.67646 | 5008 ft | 241 kts | 123° |
| 2026-04-24 15:02 | -34.81141 | -56.65926 | 5007 ft | 241 kts | 123° |
| 2026-04-24 15:02 | -34.82045 | -56.64209 | 5006 ft | 241 kts | 124° |
| 2026-04-24 15:02 | -34.82645 | -56.63071 | 5004 ft | 241 kts | 124° |
| 2026-04-24 15:03 | -34.83550 | -56.61357 | 5002 ft | 241 kts | 123° |
| 2026-04-24 15:03 | -34.84454 | -56.59638 | 5000 ft | 241 kts | 123° |
| 2026-04-24 15:03 | -34.85358 | -56.57920 | 4998 ft | 241 kts | 123° |
| 2026-04-24 15:03 | -34.86262 | -56.56201 | 4996 ft | 241 kts | 123° |
| 2026-04-24 15:04 | -34.87166 | -56.54481 | 4994 ft | 241 kts | 123° |
| 2026-04-24 15:04 | -34.88070 | -56.52761 | 4993 ft | 241 kts | 123° |
| 2026-04-24 15:04 | -34.88971 | -56.51042 | 4993 ft | 241 kts | 123° |
| 2026-04-24 15:04 | -34.89875 | -56.49321 | 4993 ft | 241 kts | 123° |
| 2026-04-24 15:05 | -34.90776 | -56.47602 | 4993 ft | 241 kts | 123° |
| 2026-04-24 15:05 | -34.91679 | -56.45882 | 4992 ft | 241 kts | 123° |
| 2026-04-24 15:05 | -34.92580 | -56.44160 | 4992 ft | 241 kts | 123° |
| 2026-04-24 15:05 | -34.93482 | -56.42440 | 4992 ft | 241 kts | 123° |
| 2026-04-24 15:06 | -34.94382 | -56.40719 | 4992 ft | 241 kts | 123° |
| 2026-04-24 15:06 | -34.95284 | -56.38996 | 4992 ft | 241 kts | 123° |
| 2026-04-24 15:06 | -34.96185 | -56.37273 | 4992 ft | 241 kts | 123° |
| 2026-04-24 15:06 | -34.97085 | -56.35553 | 4993 ft | 241 kts | 123° |
| 2026-04-24 15:07 | -34.97985 | -56.33830 | 4993 ft | 241 kts | 123° |
| 2026-04-24 15:07 | -34.98885 | -56.32106 | 4989 ft | 241 kts | 123° |
| 2026-04-24 15:07 | -34.99740 | -56.30341 | 4916 ft | 243 kts | 115° |
| 2026-04-24 15:07 | -35.00138 | -56.28329 | 4787 ft | 246 kts | 96° |
| 2026-04-24 15:08 | -35.00199 | -56.26285 | 4659 ft | 223 kts | 92° |
| 2026-04-24 15:08 | -35.00234 | -56.24594 | 4563 ft | 182 kts | 92° |
| 2026-04-24 15:08 | -35.00274 | -56.23130 | 4482 ft | 166 kts | 93° |
| 2026-04-24 15:08 | -35.00320 | -56.21754 | 4392 ft | 160 kts | 93° |
| 2026-04-24 15:09 | -35.00364 | -56.20416 | 4299 ft | 156 kts | 93° |
| 2026-04-24 15:09 | -35.00406 | -56.19097 | 4204 ft | 155 kts | 93° |
| 2026-04-24 15:09 | -35.00447 | -56.17787 | 4108 ft | 154 kts | 93° |
| 2026-04-24 15:09 | -35.00488 | -56.16482 | 4009 ft | 154 kts | 93° |
| 2026-04-24 15:10 | -35.00529 | -56.15180 | 3908 ft | 154 kts | 93° |
| 2026-04-24 15:10 | -35.00569 | -56.13878 | 3809 ft | 154 kts | 93° |
| 2026-04-24 15:10 | -35.00610 | -56.12578 | 3708 ft | 153 kts | 93° |
| 2026-04-24 15:10 | -35.00650 | -56.11277 | 3606 ft | 153 kts | 93° |
| 2026-04-24 15:11 | -35.00689 | -56.09996 | 3506 ft | 153 kts | 93° |
| 2026-04-24 15:11 | -35.00729 | -56.08698 | 3404 ft | 153 kts | 93° |
| 2026-04-24 15:11 | -35.00769 | -56.07403 | 3303 ft | 153 kts | 93° |
| 2026-04-24 15:11 | -35.00807 | -56.06109 | 3202 ft | 153 kts | 93° |
| 2026-04-24 15:12 | -35.00774 | -56.04821 | 3092 ft | 152 kts | 76° |
| 2026-04-24 15:12 | -34.99388 | -56.03006 | 2847 ft | 152 kts | 18° |
| 2026-04-24 15:12 | -34.98358 | -56.02882 | 2803 ft | 147 kts | 358° |
| 2026-04-24 15:13 | -34.97354 | -56.02902 | 2798 ft | 143 kts | 360° |
| 2026-04-24 15:13 | -34.96360 | -56.02912 | 2757 ft | 143 kts | 359° |
| 2026-04-24 15:13 | -34.95361 | -56.02923 | 2710 ft | 144 kts | 359° |
| 2026-04-24 15:13 | -34.94336 | -56.02934 | 2551 ft | 150 kts | 360° |
| 2026-04-24 15:14 | -34.93277 | -56.02946 | 2265 ft | 159 kts | 360° |
| 2026-04-24 15:14 | -34.92141 | -56.02955 | 1923 ft | 164 kts | 360° |
| 2026-04-24 15:14 | -34.91008 | -56.02970 | 1650 ft | 162 kts | 360° |
| 2026-04-24 15:14 | -34.89879 | -56.02985 | 1368 ft | 162 kts | 359° |
| 2026-04-24 15:15 | -34.88755 | -56.02999 | 1095 ft | 161 kts | 359° |
| 2026-04-24 15:15 | -34.87651 | -56.03013 | 841 ft | 156 kts | 360° |
| 2026-04-24 15:15 | -34.86592 | -56.03024 | 577 ft | 146 kts | 360° |
| 2026-04-24 15:15 | -34.85723 | -56.03036 | 314 ft | 103 kts | 0° |
| 2026-04-24 15:16 | -34.85104 | -56.03056 | 125 ft | 79 kts | 355° |
| 2026-04-24 15:16 | -34.84581 | -56.03112 | 92 ft | 78 kts | 359° |
| 2026-04-24 15:16 | -34.83995 | -56.03075 | 65 ft | 89 kts | 3° |
| 2026-04-24 15:16 | -34.83656 | -56.03062 | 66 ft | 6 kts | 56° |
| 2026-04-24 15:17 | -34.83612 | -56.03050 | 66 ft | 7 kts | 4° |
| 2026-04-24 15:17 | -34.83607 | -56.03062 | 64 ft | 6 kts | 177° |
| 2026-04-24 15:17 | -34.83653 | -56.03061 | 63 ft | 7 kts | 181° |
| 2026-04-24 15:17 | -34.83709 | -56.03060 | 60 ft | 9 kts | 179° |
| 2026-04-24 15:18 | -34.83772 | -56.03057 | 64 ft | 9 kts | 176° |
| 2026-04-24 15:18 | -34.83834 | -56.03072 | 59 ft | 9 kts | 193° |
| 2026-04-24 15:18 | -34.83902 | -56.03076 | 64 ft | 11 kts | 184° |
| 2026-04-24 15:18 | -34.83980 | -56.03068 | 66 ft | 12 kts | 148° |
| 2026-04-24 15:19 | -34.84014 | -56.02977 | 66 ft | 12 kts | 93° |
| 2026-04-24 15:19 | -34.84016 | -56.02874 | 67 ft | 12 kts | 89° |
| 2026-04-24 15:19 | -34.84034 | -56.02781 | 67 ft | 12 kts | 132° |
| 2026-04-24 15:19 | -34.84074 | -56.02752 | 68 ft | 0 kts | 154° |